sensor_id;sensor_type;location;lat;lon;timestamp;P1;durP1;ratioP1;P2;durP2;ratioP2
34836;SDS011;21053;50.848;4.652;2024-02-14T00:00:22;101.97;;;93.85;;
34836;SDS011;21053;50.848;4.652;2024-02-14T00:05:20;116.38;;;106.65;;
34836;SDS011;21053;50.848;4.652;2024-02-14T00:07:46;115.43;;;105.68;;
34836;SDS011;21053;50.848;4.652;2024-02-14T00:12:44;101.38;;;93.13;;
34836;SDS011;21053;50.848;4.652;2024-02-14T00:15:11;116.18;;;106.63;;
34836;SDS011;21053;50.848;4.652;2024-02-14T00:17:37;104.50;;;96.13;;
34836;SDS011;21053;50.848;4.652;2024-02-14T00:20:03;111.57;;;102.57;;
34836;SDS011;21053;50.848;4.652;2024-02-14T00:22:32;140.35;;;128.85;;
34836;SDS011;21053;50.848;4.652;2024-02-14T00:29:56;118.70;;;109.07;;
34836;SDS011;21053;50.848;4.652;2024-02-14T00:32:23;125.35;;;114.97;;
34836;SDS011;21053;50.848;4.652;2024-02-14T00:34:52;119.22;;;109.50;;
34836;SDS011;21053;50.848;4.652;2024-02-14T00:37:19;102.07;;;93.88;;
34836;SDS011;21053;50.848;4.652;2024-02-14T00:39:48;90.55;;;83.30;;
34836;SDS011;21053;50.848;4.652;2024-02-14T00:42:15;99.38;;;91.38;;
34836;SDS011;21053;50.848;4.652;2024-02-14T00:44:42;102.57;;;94.18;;
34836;SDS011;21053;50.848;4.652;2024-02-14T00:47:09;89.50;;;82.15;;
34836;SDS011;21053;50.848;4.652;2024-02-14T00:52:10;114.10;;;104.88;;
34836;SDS011;21053;50.848;4.652;2024-02-14T00:54:39;106.53;;;97.65;;
34836;SDS011;21053;50.848;4.652;2024-02-14T00:57:07;106.32;;;97.82;;
34836;SDS011;21053;50.848;4.652;2024-02-14T00:59:33;103.75;;;95.03;;
34836;SDS011;21053;50.848;4.652;2024-02-14T01:04:30;108.30;;;99.70;;
34836;SDS011;21053;50.848;4.652;2024-02-14T01:06:57;109.97;;;101.00;;
34836;SDS011;21053;50.848;4.652;2024-02-14T01:09:26;106.88;;;98.38;;
34836;SDS011;21053;50.848;4.652;2024-02-14T01:11:54;103.45;;;95.03;;
34836;SDS011;21053;50.848;4.652;2024-02-14T01:14:20;119.68;;;110.07;;
34836;SDS011;21053;50.848;4.652;2024-02-14T01:16:50;129.07;;;118.50;;
34836;SDS011;21053;50.848;4.652;2024-02-14T01:19:16;122.47;;;112.25;;
34836;SDS011;21053;50.848;4.652;2024-02-14T01:24:16;118.75;;;109.18;;
34836;SDS011;21053;50.848;4.652;2024-02-14T01:29:11;118.93;;;109.18;;
34836;SDS011;21053;50.848;4.652;2024-02-14T01:34:07;132.30;;;121.38;;
34836;SDS011;21053;50.848;4.652;2024-02-14T01:36:34;96.65;;;88.88;;
34836;SDS011;21053;50.848;4.652;2024-02-14T01:38:59;109.32;;;100.40;;
34836;SDS011;21053;50.848;4.652;2024-02-14T01:41:26;131.35;;;120.50;;
34836;SDS011;21053;50.848;4.652;2024-02-14T01:46:24;108.05;;;99.15;;
34836;SDS011;21053;50.848;4.652;2024-02-14T01:48:52;132.32;;;121.75;;
34836;SDS011;21053;50.848;4.652;2024-02-14T01:51:19;101.88;;;93.68;;
34836;SDS011;21053;50.848;4.652;2024-02-14T01:53:50;106.28;;;97.60;;
34836;SDS011;21053;50.848;4.652;2024-02-14T01:56:21;99.13;;;91.10;;
34836;SDS011;21053;50.848;4.652;2024-02-14T01:58:47;105.53;;;97.18;;
34836;SDS011;21053;50.848;4.652;2024-02-14T02:01:14;111.47;;;102.60;;
34836;SDS011;21053;50.848;4.652;2024-02-14T02:03:43;142.30;;;130.88;;
34836;SDS011;21053;50.848;4.652;2024-02-14T02:06:10;126.15;;;116.00;;
34836;SDS011;21053;50.848;4.652;2024-02-14T02:08:38;107.40;;;98.72;;
34836;SDS011;21053;50.848;4.652;2024-02-14T02:11:05;117.47;;;107.00;;
34836;SDS011;21053;50.848;4.652;2024-02-14T02:13:32;105.55;;;96.97;;
34836;SDS011;21053;50.848;4.652;2024-02-14T02:15:59;115.43;;;105.82;;
34836;SDS011;21053;50.848;4.652;2024-02-14T02:18:29;118.72;;;109.15;;
34836;SDS011;21053;50.848;4.652;2024-02-14T02:20:56;123.15;;;113.13;;
34836;SDS011;21053;50.848;4.652;2024-02-14T02:23:23;144.57;;;132.73;;
34836;SDS011;21053;50.848;4.652;2024-02-14T02:25:50;110.00;;;101.07;;
34836;SDS011;21053;50.848;4.652;2024-02-14T02:28:16;119.60;;;109.65;;
34836;SDS011;21053;50.848;4.652;2024-02-14T02:30:43;112.10;;;103.05;;
34836;SDS011;21053;50.848;4.652;2024-02-14T02:33:12;103.53;;;95.15;;
34836;SDS011;21053;50.848;4.652;2024-02-14T02:35:41;134.88;;;123.97;;
34836;SDS011;21053;50.848;4.652;2024-02-14T02:38:11;114.88;;;105.50;;
34836;SDS011;21053;50.848;4.652;2024-02-14T02:40:39;108.60;;;99.75;;
34836;SDS011;21053;50.848;4.652;2024-02-14T02:43:05;130.15;;;119.60;;
34836;SDS011;21053;50.848;4.652;2024-02-14T02:45:32;118.28;;;108.75;;
34836;SDS011;21053;50.848;4.652;2024-02-14T02:47:57;109.25;;;100.53;;
34836;SDS011;21053;50.848;4.652;2024-02-14T02:50:24;123.05;;;112.60;;
34836;SDS011;21053;50.848;4.652;2024-02-14T02:52:53;124.20;;;114.15;;
34836;SDS011;21053;50.848;4.652;2024-02-14T02:55:20;101.60;;;93.43;;
34836;SDS011;21053;50.848;4.652;2024-02-14T02:57:46;115.63;;;106.22;;
34836;SDS011;21053;50.848;4.652;2024-02-14T03:00:12;110.97;;;102.10;;
34836;SDS011;21053;50.848;4.652;2024-02-14T03:02:38;132.30;;;121.68;;
34836;SDS011;21053;50.848;4.652;2024-02-14T03:07:52;119.43;;;109.80;;
34836;SDS011;21053;50.848;4.652;2024-02-14T03:12:48;114.38;;;104.93;;
34836;SDS011;21053;50.848;4.652;2024-02-14T03:15:17;108.82;;;99.82;;
34836;SDS011;21053;50.848;4.652;2024-02-14T03:17:45;112.68;;;103.55;;
34836;SDS011;21053;50.848;4.652;2024-02-14T03:20:12;111.72;;;102.78;;
34836;SDS011;21053;50.848;4.652;2024-02-14T03:22:43;99.05;;;91.10;;
34836;SDS011;21053;50.848;4.652;2024-02-14T03:25:21;101.80;;;93.32;;
34836;SDS011;21053;50.848;4.652;2024-02-14T03:27:49;108.15;;;99.45;;
34836;SDS011;21053;50.848;4.652;2024-02-14T03:30:19;103.82;;;95.50;;
34836;SDS011;21053;50.848;4.652;2024-02-14T03:32:46;103.20;;;94.72;;
34836;SDS011;21053;50.848;4.652;2024-02-14T03:35:12;118.15;;;108.53;;
34836;SDS011;21053;50.848;4.652;2024-02-14T03:37:41;119.03;;;109.35;;
34836;SDS011;21053;50.848;4.652;2024-02-14T03:40:09;118.97;;;109.20;;
34836;SDS011;21053;50.848;4.652;2024-02-14T03:42:36;108.55;;;99.85;;
34836;SDS011;21053;50.848;4.652;2024-02-14T03:45:08;104.10;;;95.93;;
34836;SDS011;21053;50.848;4.652;2024-02-14T03:47:36;112.85;;;103.88;;
34836;SDS011;21053;50.848;4.652;2024-02-14T03:50:05;111.93;;;103.10;;
34836;SDS011;21053;50.848;4.652;2024-02-14T03:52:32;108.30;;;99.22;;
34836;SDS011;21053;50.848;4.652;2024-02-14T03:54:59;110.70;;;101.88;;
34836;SDS011;21053;50.848;4.652;2024-02-14T03:57:26;116.00;;;106.38;;
34836;SDS011;21053;50.848;4.652;2024-02-14T03:59:59;124.22;;;114.22;;
34836;SDS011;21053;50.848;4.652;2024-02-14T04:02:29;141.57;;;130.43;;
34836;SDS011;21053;50.848;4.652;2024-02-14T04:04:56;144.10;;;132.52;;
34836;SDS011;21053;50.848;4.652;2024-02-14T04:09:53;125.22;;;115.10;;
34836;SDS011;21053;50.848;4.652;2024-02-14T04:12:20;125.40;;;115.68;;
34836;SDS011;21053;50.848;4.652;2024-02-14T04:14:48;124.10;;;114.18;;
34836;SDS011;21053;50.848;4.652;2024-02-14T04:17:15;130.77;;;120.30;;
34836;SDS011;21053;50.848;4.652;2024-02-14T04:19:42;136.95;;;126.07;;
34836;SDS011;21053;50.848;4.652;2024-02-14T04:22:09;134.45;;;123.75;;
34836;SDS011;21053;50.848;4.652;2024-02-14T04:27:05;110.75;;;101.93;;
34836;SDS011;21053;50.848;4.652;2024-02-14T04:29:41;146.60;;;134.82;;
34836;SDS011;21053;50.848;4.652;2024-02-14T04:32:12;135.23;;;124.03;;
34836;SDS011;21053;50.848;4.652;2024-02-14T04:34:42;168.40;;;154.45;;
34836;SDS011;21053;50.848;4.652;2024-02-14T04:37:11;160.82;;;147.52;;
34836;SDS011;21053;50.848;4.652;2024-02-14T04:39:40;157.82;;;144.60;;
34836;SDS011;21053;50.848;4.652;2024-02-14T04:42:09;152.82;;;140.38;;
34836;SDS011;21053;50.848;4.652;2024-02-14T04:47:05;170.13;;;156.25;;
34836;SDS011;21053;50.848;4.652;2024-02-14T04:49:34;144.27;;;132.50;;
34836;SDS011;21053;50.848;4.652;2024-02-14T04:51:59;160.32;;;147.15;;
34836;SDS011;21053;50.848;4.652;2024-02-14T04:56:55;135.07;;;124.15;;
34836;SDS011;21053;50.848;4.652;2024-02-14T04:59:23;142.15;;;130.63;;
34836;SDS011;21053;50.848;4.652;2024-02-14T05:04:20;160.18;;;146.93;;
34836;SDS011;21053;50.848;4.652;2024-02-14T05:11:44;149.45;;;137.05;;
34836;SDS011;21053;50.848;4.652;2024-02-14T05:14:13;155.30;;;142.20;;
34836;SDS011;21053;50.848;4.652;2024-02-14T05:19:19;131.88;;;121.07;;
34836;SDS011;21053;50.848;4.652;2024-02-14T05:21:47;157.40;;;144.55;;
34836;SDS011;21053;50.848;4.652;2024-02-14T05:24:14;157.73;;;143.75;;
34836;SDS011;21053;50.848;4.652;2024-02-14T05:26:39;140.50;;;128.68;;
34836;SDS011;21053;50.848;4.652;2024-02-14T05:31:44;143.50;;;131.77;;
34836;SDS011;21053;50.848;4.652;2024-02-14T05:34:12;152.38;;;139.95;;
34836;SDS011;21053;50.848;4.652;2024-02-14T05:36:39;155.30;;;142.77;;
34836;SDS011;21053;50.848;4.652;2024-02-14T05:39:04;151.05;;;138.65;;
34836;SDS011;21053;50.848;4.652;2024-02-14T05:41:34;169.88;;;155.93;;
34836;SDS011;21053;50.848;4.652;2024-02-14T05:46:29;145.88;;;133.73;;
34836;SDS011;21053;50.848;4.652;2024-02-14T05:48:55;155.15;;;142.55;;
34836;SDS011;21053;50.848;4.652;2024-02-14T05:51:25;137.50;;;126.03;;
34836;SDS011;21053;50.848;4.652;2024-02-14T05:53:53;139.10;;;127.85;;
34836;SDS011;21053;50.848;4.652;2024-02-14T05:56:21;129.82;;;119.22;;
34836;SDS011;21053;50.848;4.652;2024-02-14T06:01:17;147.25;;;135.45;;
34836;SDS011;21053;50.848;4.652;2024-02-14T06:03:45;127.68;;;117.50;;
34836;SDS011;21053;50.848;4.652;2024-02-14T06:06:13;142.25;;;130.88;;
34836;SDS011;21053;50.848;4.652;2024-02-14T06:08:42;139.98;;;128.57;;
34836;SDS011;21053;50.848;4.652;2024-02-14T06:11:11;127.22;;;116.95;;
34836;SDS011;21053;50.848;4.652;2024-02-14T06:13:45;130.95;;;120.43;;
34836;SDS011;21053;50.848;4.652;2024-02-14T06:16:13;138.98;;;127.55;;
34836;SDS011;21053;50.848;4.652;2024-02-14T06:21:10;137.05;;;126.03;;
34836;SDS011;21053;50.848;4.652;2024-02-14T06:23:37;132.75;;;122.05;;
34836;SDS011;21053;50.848;4.652;2024-02-14T06:26:03;124.90;;;115.00;;
34836;SDS011;21053;50.848;4.652;2024-02-14T06:28:31;142.15;;;130.65;;
34836;SDS011;21053;50.848;4.652;2024-02-14T06:30:56;124.72;;;114.65;;
34836;SDS011;21053;50.848;4.652;2024-02-14T06:33:22;107.50;;;98.57;;
34836;SDS011;21053;50.848;4.652;2024-02-14T06:35:50;125.10;;;115.05;;
34836;SDS011;21053;50.848;4.652;2024-02-14T06:38:19;127.32;;;117.13;;
34836;SDS011;21053;50.848;4.652;2024-02-14T06:40:45;113.72;;;104.45;;
34836;SDS011;21053;50.848;4.652;2024-02-14T06:43:14;125.72;;;115.70;;
34836;SDS011;21053;50.848;4.652;2024-02-14T06:45:40;107.93;;;99.38;;
34836;SDS011;21053;50.848;4.652;2024-02-14T06:50:46;124.40;;;114.55;;
34836;SDS011;21053;50.848;4.652;2024-02-14T06:53:14;124.07;;;114.25;;
34836;SDS011;21053;50.848;4.652;2024-02-14T06:55:42;119.70;;;110.13;;
34836;SDS011;21053;50.848;4.652;2024-02-14T07:00:40;122.43;;;111.68;;
34836;SDS011;21053;50.848;4.652;2024-02-14T07:03:06;122.65;;;112.88;;
34836;SDS011;21053;50.848;4.652;2024-02-14T07:05:35;123.97;;;113.88;;
34836;SDS011;21053;50.848;4.652;2024-02-14T07:08:01;113.47;;;104.40;;
34836;SDS011;21053;50.848;4.652;2024-02-14T07:10:27;106.05;;;97.50;;
34836;SDS011;21053;50.848;4.652;2024-02-14T07:12:54;112.50;;;103.50;;
34836;SDS011;21053;50.848;4.652;2024-02-14T07:17:54;112.65;;;103.55;;
34836;SDS011;21053;50.848;4.652;2024-02-14T07:20:27;101.72;;;93.78;;
34836;SDS011;21053;50.848;4.652;2024-02-14T07:25:23;103.97;;;95.50;;
34836;SDS011;21053;50.848;4.652;2024-02-14T07:27:49;100.15;;;91.60;;
34836;SDS011;21053;50.848;4.652;2024-02-14T07:30:16;112.43;;;103.43;;
34836;SDS011;21053;50.848;4.652;2024-02-14T07:32:45;107.45;;;98.90;;
34836;SDS011;21053;50.848;4.652;2024-02-14T07:35:11;121.38;;;111.57;;
34836;SDS011;21053;50.848;4.652;2024-02-14T07:37:38;107.60;;;98.95;;
34836;SDS011;21053;50.848;4.652;2024-02-14T07:40:04;112.50;;;103.55;;
34836;SDS011;21053;50.848;4.652;2024-02-14T07:42:34;109.57;;;100.80;;
34836;SDS011;21053;50.848;4.652;2024-02-14T07:45:02;121.40;;;111.72;;
34836;SDS011;21053;50.848;4.652;2024-02-14T07:47:30;110.25;;;101.43;;
34836;SDS011;21053;50.848;4.652;2024-02-14T07:49:56;130.50;;;119.88;;
34836;SDS011;21053;50.848;4.652;2024-02-14T07:55:10;106.15;;;97.80;;
34836;SDS011;21053;50.848;4.652;2024-02-14T08:00:06;111.65;;;102.68;;
34836;SDS011;21053;50.848;4.652;2024-02-14T08:02:33;89.60;;;82.63;;
34836;SDS011;21053;50.848;4.652;2024-02-14T08:05:01;92.57;;;85.15;;
34836;SDS011;21053;50.848;4.652;2024-02-14T08:07:28;105.88;;;97.43;;
34836;SDS011;21053;50.848;4.652;2024-02-14T08:09:56;100.45;;;92.43;;
34836;SDS011;21053;50.848;4.652;2024-02-14T08:12:27;101.78;;;93.75;;
34836;SDS011;21053;50.848;4.652;2024-02-14T08:19:54;105.97;;;97.50;;
34836;SDS011;21053;50.848;4.652;2024-02-14T08:22:20;105.68;;;97.32;;
34836;SDS011;21053;50.848;4.652;2024-02-14T08:24:46;105.80;;;97.07;;
34836;SDS011;21053;50.848;4.652;2024-02-14T08:27:18;103.85;;;95.47;;
34836;SDS011;21053;50.848;4.652;2024-02-14T08:29:44;109.20;;;100.20;;
34836;SDS011;21053;50.848;4.652;2024-02-14T08:32:11;107.05;;;98.63;;
34836;SDS011;21053;50.848;4.652;2024-02-14T08:34:37;98.90;;;91.15;;
34836;SDS011;21053;50.848;4.652;2024-02-14T08:37:02;132.50;;;120.90;;
34836;SDS011;21053;50.848;4.652;2024-02-14T08:39:29;111.30;;;102.47;;
34836;SDS011;21053;50.848;4.652;2024-02-14T08:41:57;119.70;;;109.97;;
34836;SDS011;21053;50.848;4.652;2024-02-14T08:44:22;103.65;;;95.45;;
34836;SDS011;21053;50.848;4.652;2024-02-14T08:46:49;101.72;;;93.65;;
34836;SDS011;21053;50.848;4.652;2024-02-14T08:49:17;89.80;;;82.68;;
34836;SDS011;21053;50.848;4.652;2024-02-14T08:51:43;96.65;;;89.07;;
34836;SDS011;21053;50.848;4.652;2024-02-14T08:54:12;110.90;;;101.93;;
34836;SDS011;21053;50.848;4.652;2024-02-14T08:56:38;107.03;;;98.60;;
34836;SDS011;21053;50.848;4.652;2024-02-14T08:59:04;106.15;;;97.38;;
34836;SDS011;21053;50.848;4.652;2024-02-14T09:04:03;103.90;;;95.68;;
34836;SDS011;21053;50.848;4.652;2024-02-14T09:06:29;101.82;;;93.63;;
34836;SDS011;21053;50.848;4.652;2024-02-14T09:08:54;111.10;;;102.10;;
34836;SDS011;21053;50.848;4.652;2024-02-14T09:11:24;113.20;;;103.97;;
34836;SDS011;21053;50.848;4.652;2024-02-14T09:13:53;120.28;;;110.50;;
34836;SDS011;21053;50.848;4.652;2024-02-14T09:16:22;115.18;;;105.85;;
34836;SDS011;21053;50.848;4.652;2024-02-14T09:18:54;131.32;;;120.57;;
34836;SDS011;21053;50.848;4.652;2024-02-14T09:21:20;119.95;;;110.28;;
34836;SDS011;21053;50.848;4.652;2024-02-14T09:26:29;121.20;;;111.45;;
34836;SDS011;21053;50.848;4.652;2024-02-14T09:28:55;115.93;;;106.63;;
34836;SDS011;21053;50.848;4.652;2024-02-14T09:31:21;120.13;;;110.35;;
34836;SDS011;21053;50.848;4.652;2024-02-14T09:33:50;127.30;;;117.03;;
34836;SDS011;21053;50.848;4.652;2024-02-14T09:38:49;150.20;;;137.93;;
34836;SDS011;21053;50.848;4.652;2024-02-14T09:41:22;121.30;;;111.38;;
34836;SDS011;21053;50.848;4.652;2024-02-14T09:43:59;139.68;;;128.38;;
34836;SDS011;21053;50.848;4.652;2024-02-14T09:46:27;126.22;;;115.85;;
34836;SDS011;21053;50.848;4.652;2024-02-14T09:48:56;128.15;;;117.68;;
34836;SDS011;21053;50.848;4.652;2024-02-14T09:51:28;126.45;;;116.13;;
34836;SDS011;21053;50.848;4.652;2024-02-14T09:53:54;118.03;;;108.60;;
34836;SDS011;21053;50.848;4.652;2024-02-14T09:56:21;104.93;;;96.53;;
34836;SDS011;21053;50.848;4.652;2024-02-14T09:58:51;106.03;;;97.68;;
34836;SDS011;21053;50.848;4.652;2024-02-14T10:01:24;122.35;;;111.90;;
34836;SDS011;21053;50.848;4.652;2024-02-14T10:03:51;108.78;;;99.88;;
34836;SDS011;21053;50.848;4.652;2024-02-14T10:08:48;115.03;;;105.05;;
34836;SDS011;21053;50.848;4.652;2024-02-14T10:11:17;116.88;;;107.43;;
34836;SDS011;21053;50.848;4.652;2024-02-14T10:14:15;107.38;;;98.65;;
34836;SDS011;21053;50.848;4.652;2024-02-14T10:24:09;112.45;;;103.57;;
34836;SDS011;21053;50.848;4.652;2024-02-14T10:26:41;111.22;;;102.10;;
34836;SDS011;21053;50.848;4.652;2024-02-14T10:29:09;119.30;;;109.88;;
34836;SDS011;21053;50.848;4.652;2024-02-14T10:31:40;113.70;;;104.70;;
34836;SDS011;21053;50.848;4.652;2024-02-14T10:34:07;128.32;;;117.85;;
34836;SDS011;21053;50.848;4.652;2024-02-14T10:36:35;133.60;;;122.95;;
34836;SDS011;21053;50.848;4.652;2024-02-14T10:39:01;120.68;;;110.95;;
34836;SDS011;21053;50.848;4.652;2024-02-14T10:41:31;140.70;;;129.15;;
34836;SDS011;21053;50.848;4.652;2024-02-14T10:44:09;137.13;;;125.78;;
34836;SDS011;21053;50.848;4.652;2024-02-14T10:46:42;127.95;;;117.45;;
34836;SDS011;21053;50.848;4.652;2024-02-14T10:49:12;146.13;;;134.25;;
34836;SDS011;21053;50.848;4.652;2024-02-14T10:51:44;160.63;;;147.43;;
34836;SDS011;21053;50.848;4.652;2024-02-14T10:56:50;147.40;;;135.23;;
34836;SDS011;21053;50.848;4.652;2024-02-14T10:59:19;154.55;;;141.35;;
34836;SDS011;21053;50.848;4.652;2024-02-14T11:01:49;156.82;;;143.57;;
34836;SDS011;21053;50.848;4.652;2024-02-14T11:04:16;162.10;;;148.77;;
34836;SDS011;21053;50.848;4.652;2024-02-14T11:06:52;149.60;;;137.15;;
34836;SDS011;21053;50.848;4.652;2024-02-14T11:09:31;141.52;;;129.73;;
34836;SDS011;21053;50.848;4.652;2024-02-14T11:12:01;138.75;;;127.43;;
34836;SDS011;21053;50.848;4.652;2024-02-14T11:14:34;148.80;;;136.55;;
34836;SDS011;21053;50.848;4.652;2024-02-14T11:17:14;161.65;;;148.35;;
34836;SDS011;21053;50.848;4.652;2024-02-14T11:19:40;134.75;;;123.60;;
34836;SDS011;21053;50.848;4.652;2024-02-14T11:22:17;147.10;;;134.88;;
34836;SDS011;21053;50.848;4.652;2024-02-14T11:24:47;137.45;;;126.15;;
34836;SDS011;21053;50.848;4.652;2024-02-14T11:27:14;130.27;;;119.38;;
34836;SDS011;21053;50.848;4.652;2024-02-14T11:29:52;145.98;;;133.93;;
34836;SDS011;21053;50.848;4.652;2024-02-14T11:32:21;132.73;;;121.93;;
34836;SDS011;21053;50.848;4.652;2024-02-14T11:34:52;130.93;;;119.82;;
34836;SDS011;21053;50.848;4.652;2024-02-14T11:37:28;135.00;;;124.05;;
34836;SDS011;21053;50.848;4.652;2024-02-14T11:39:56;140.00;;;128.38;;
34836;SDS011;21053;50.848;4.652;2024-02-14T11:42:23;156.50;;;143.73;;
34836;SDS011;21053;50.848;4.652;2024-02-14T11:44:50;160.68;;;147.23;;
34836;SDS011;21053;50.848;4.652;2024-02-14T11:49:46;125.13;;;114.55;;
34836;SDS011;21053;50.848;4.652;2024-02-14T11:52:13;126.95;;;116.30;;
34836;SDS011;21053;50.848;4.652;2024-02-14T11:54:45;143.40;;;131.40;;
34836;SDS011;21053;50.848;4.652;2024-02-14T11:57:18;139.38;;;127.80;;
34836;SDS011;21053;50.848;4.652;2024-02-14T11:59:48;152.05;;;139.55;;
34836;SDS011;21053;50.848;4.652;2024-02-14T12:02:18;149.63;;;136.98;;
34836;SDS011;21053;50.848;4.652;2024-02-14T12:07:18;136.38;;;125.05;;
34836;SDS011;21053;50.848;4.652;2024-02-14T12:09:47;136.45;;;124.90;;
34836;SDS011;21053;50.848;4.652;2024-02-14T12:12:15;135.60;;;124.10;;
34836;SDS011;21053;50.848;4.652;2024-02-14T12:14:46;134.68;;;123.55;;
34836;SDS011;21053;50.848;4.652;2024-02-14T12:17:16;147.40;;;135.07;;
34836;SDS011;21053;50.848;4.652;2024-02-14T12:19:46;153.07;;;140.38;;
34836;SDS011;21053;50.848;4.652;2024-02-14T12:24:47;122.47;;;112.28;;
34836;SDS011;21053;50.848;4.652;2024-02-14T12:27:16;122.25;;;111.85;;
34836;SDS011;21053;50.848;4.652;2024-02-14T12:29:47;159.65;;;145.65;;
34836;SDS011;21053;50.848;4.652;2024-02-14T12:34:52;133.55;;;122.13;;
34836;SDS011;21053;50.848;4.652;2024-02-14T12:37:24;116.93;;;106.90;;
34836;SDS011;21053;50.848;4.652;2024-02-14T12:39:56;144.77;;;132.25;;
34836;SDS011;21053;50.848;4.652;2024-02-14T12:42:25;117.88;;;107.78;;
34836;SDS011;21053;50.848;4.652;2024-02-14T12:44:54;106.78;;;97.70;;
34836;SDS011;21053;50.848;4.652;2024-02-14T12:47:22;160.48;;;146.45;;
34836;SDS011;21053;50.848;4.652;2024-02-14T12:49:50;141.65;;;129.63;;
34836;SDS011;21053;50.848;4.652;2024-02-14T12:52:16;134.00;;;122.40;;
34836;SDS011;21053;50.848;4.652;2024-02-14T12:54:43;138.82;;;126.82;;
34836;SDS011;21053;50.848;4.652;2024-02-14T12:57:09;144.05;;;132.02;;
34836;SDS011;21053;50.848;4.652;2024-02-14T12:59:35;139.75;;;127.88;;
34836;SDS011;21053;50.848;4.652;2024-02-14T13:02:02;141.98;;;129.75;;
34836;SDS011;21053;50.848;4.652;2024-02-14T13:04:31;145.40;;;133.13;;
34836;SDS011;21053;50.848;4.652;2024-02-14T13:06:57;149.95;;;137.10;;
34836;SDS011;21053;50.848;4.652;2024-02-14T13:09:26;149.48;;;136.68;;
34836;SDS011;21053;50.848;4.652;2024-02-14T13:14:23;119.07;;;109.15;;
34836;SDS011;21053;50.848;4.652;2024-02-14T13:16:49;142.32;;;130.38;;
34836;SDS011;21053;50.848;4.652;2024-02-14T13:19:16;121.03;;;110.22;;
34836;SDS011;21053;50.848;4.652;2024-02-14T13:21:43;123.72;;;113.25;;
34836;SDS011;21053;50.848;4.652;2024-02-14T13:24:12;98.40;;;90.05;;
34836;SDS011;21053;50.848;4.652;2024-02-14T13:26:38;127.00;;;116.53;;
34836;SDS011;21053;50.848;4.652;2024-02-14T13:29:06;125.18;;;114.60;;
34836;SDS011;21053;50.848;4.652;2024-02-14T13:31:33;117.63;;;107.63;;
34836;SDS011;21053;50.848;4.652;2024-02-14T13:34:00;123.57;;;112.90;;
34836;SDS011;21053;50.848;4.652;2024-02-14T13:36:26;102.97;;;94.30;;
34836;SDS011;21053;50.848;4.652;2024-02-14T13:38:54;102.78;;;93.88;;
34836;SDS011;21053;50.848;4.652;2024-02-14T13:43:49;112.68;;;103.13;;
34836;SDS011;21053;50.848;4.652;2024-02-14T13:46:15;101.70;;;93.22;;
34836;SDS011;21053;50.848;4.652;2024-02-14T13:48:41;110.82;;;101.43;;
34836;SDS011;21053;50.848;4.652;2024-02-14T13:51:06;116.60;;;106.97;;
34836;SDS011;21053;50.848;4.652;2024-02-14T13:53:33;116.57;;;107.05;;
34836;SDS011;21053;50.848;4.652;2024-02-14T13:55:59;102.40;;;94.00;;
34836;SDS011;21053;50.848;4.652;2024-02-14T13:58:25;125.95;;;115.50;;
34836;SDS011;21053;50.848;4.652;2024-02-14T14:00:52;116.53;;;106.75;;
34836;SDS011;21053;50.848;4.652;2024-02-14T14:03:18;99.35;;;91.07;;
34836;SDS011;21053;50.848;4.652;2024-02-14T14:05:44;103.70;;;95.32;;
34836;SDS011;21053;50.848;4.652;2024-02-14T14:08:11;110.53;;;101.28;;
34836;SDS011;21053;50.848;4.652;2024-02-14T14:10:40;115.80;;;105.72;;
34836;SDS011;21053;50.848;4.652;2024-02-14T14:13:07;110.43;;;101.25;;
34836;SDS011;21053;50.848;4.652;2024-02-14T14:15:36;97.07;;;88.95;;
34836;SDS011;21053;50.848;4.652;2024-02-14T14:18:04;108.85;;;99.68;;
34836;SDS011;21053;50.848;4.652;2024-02-14T14:20:30;124.10;;;113.68;;
34836;SDS011;21053;50.848;4.652;2024-02-14T14:22:56;132.82;;;120.72;;
34836;SDS011;21053;50.848;4.652;2024-02-14T14:25:24;101.72;;;93.28;;
34836;SDS011;21053;50.848;4.652;2024-02-14T14:27:50;126.97;;;116.05;;
34836;SDS011;21053;50.848;4.652;2024-02-14T14:30:17;125.82;;;115.18;;
34836;SDS011;21053;50.848;4.652;2024-02-14T14:32:44;118.78;;;108.47;;
34836;SDS011;21053;50.848;4.652;2024-02-14T14:35:12;100.35;;;91.63;;
34836;SDS011;21053;50.848;4.652;2024-02-14T14:37:43;122.60;;;112.15;;
34836;SDS011;21053;50.848;4.652;2024-02-14T14:40:09;120.80;;;110.63;;
34836;SDS011;21053;50.848;4.652;2024-02-14T14:45:04;123.28;;;112.65;;
34836;SDS011;21053;50.848;4.652;2024-02-14T14:50:00;123.43;;;112.95;;
34836;SDS011;21053;50.848;4.652;2024-02-14T14:52:29;114.72;;;104.75;;
34836;SDS011;21053;50.848;4.652;2024-02-14T14:57:23;122.07;;;111.63;;
34836;SDS011;21053;50.848;4.652;2024-02-14T14:59:49;141.73;;;129.63;;
34836;SDS011;21053;50.848;4.652;2024-02-14T15:02:16;141.77;;;129.55;;
34836;SDS011;21053;50.848;4.652;2024-02-14T15:04:42;111.90;;;102.32;;
34836;SDS011;21053;50.848;4.652;2024-02-14T15:07:13;110.75;;;101.55;;
34836;SDS011;21053;50.848;4.652;2024-02-14T15:09:42;121.93;;;111.45;;
34836;SDS011;21053;50.848;4.652;2024-02-14T15:12:08;110.63;;;101.10;;
34836;SDS011;21053;50.848;4.652;2024-02-14T15:14:35;98.40;;;89.97;;
34836;SDS011;21053;50.848;4.652;2024-02-14T15:17:04;102.22;;;93.53;;
34836;SDS011;21053;50.848;4.652;2024-02-14T15:19:30;94.93;;;86.43;;
34836;SDS011;21053;50.848;4.652;2024-02-14T15:21:57;120.03;;;109.88;;
34836;SDS011;21053;50.848;4.652;2024-02-14T15:24:27;93.82;;;86.25;;
34836;SDS011;21053;50.848;4.652;2024-02-14T15:26:52;90.70;;;83.07;;
34836;SDS011;21053;50.848;4.652;2024-02-14T15:29:26;108.20;;;99.05;;
34836;SDS011;21053;50.848;4.652;2024-02-14T15:32:13;90.10;;;82.60;;
34836;SDS011;21053;50.848;4.652;2024-02-14T15:34:57;103.32;;;94.85;;
34836;SDS011;21053;50.848;4.652;2024-02-14T15:37:27;102.75;;;94.28;;
34836;SDS011;21053;50.848;4.652;2024-02-14T15:39:55;109.15;;;99.80;;
34836;SDS011;21053;50.848;4.652;2024-02-14T15:42:22;123.57;;;113.22;;
34836;SDS011;21053;50.848;4.652;2024-02-14T15:47:20;109.07;;;99.85;;
34836;SDS011;21053;50.848;4.652;2024-02-14T15:49:46;101.10;;;92.10;;
34836;SDS011;21053;50.848;4.652;2024-02-14T15:52:13;117.03;;;107.25;;
34836;SDS011;21053;50.848;4.652;2024-02-14T15:54:39;103.57;;;95.00;;
34836;SDS011;21053;50.848;4.652;2024-02-14T15:57:11;105.07;;;96.40;;
34836;SDS011;21053;50.848;4.652;2024-02-14T15:59:39;119.93;;;109.82;;
34836;SDS011;21053;50.848;4.652;2024-02-14T16:02:07;101.22;;;92.85;;
34836;SDS011;21053;50.848;4.652;2024-02-14T16:04:36;106.03;;;97.28;;
34836;SDS011;21053;50.848;4.652;2024-02-14T16:07:02;96.13;;;88.32;;
34836;SDS011;21053;50.848;4.652;2024-02-14T16:09:29;116.68;;;107.15;;
34836;SDS011;21053;50.848;4.652;2024-02-14T16:11:56;89.80;;;82.32;;